Buoy 44845

sailwx.info

Track history (hours):
 
Tides and Currents Weather Stations Pressure Air Temp Water Temp Dewpoint Dewpoint Depression Visibility Wind Speed Wind Dir Waves Ship Positions

Drifting buoy 44845

Last reported at 2015-Jul-04 06:01 UTC. Time now 2015-Jul-04 06:59 UTC.
Position N 71°54' E 012°07'.

Water temperature 3.9 ° C

Date/timePositionNaut miles runAvg speedWind from/ knotsBaromVisibWave heightAir tempDewpointWater temp
2015-Jul-04 06:01N 71°54' E 012°07'1 0.8 3.9
2015-Jul-04 05:01N 71°53' E 012°10'1 0.9 3.7
2015-Jul-04 04:01N 71°53' E 012°12'1 0.9 3.8
2015-Jul-04 03:01N 71°53' E 012°15'1 0.9 3.5
2015-Jul-04 02:01N 71°53' E 012°18'1 0.8 3.9
2015-Jul-04 01:01N 71°53' E 012°20'1 0.7 3.6
2015-Jul-04 00:01N 71°53' E 012°23'1 0.6 4.0
2015-Jul-03 23:01N 71°53' E 012°25'1 0.5 4.0
2015-Jul-03 22:01N 71°53' E 012°26'0 0.4 4.3
2015-Jul-03 21:01N 71°53' E 012°28'1 0.5 4.2
2015-Jul-03 20:01N 71°53' E 012°29'1 0.6 4.0
2015-Jul-03 19:01N 71°53' E 012°31'1 0.6 4.2
2015-Jul-03 18:01N 71°53' E 012°33'1 0.6 3.9
2015-Jul-03 17:01N 71°52' E 012°35'1 0.7 4.0
2015-Jul-03 16:01N 71°52' E 012°37'1 0.6 4.2
2015-Jul-03 15:01N 71°52' E 012°39'1 0.6 4.1
2015-Jul-03 14:01N 71°52' E 012°41'1 0.6 3.9
2015-Jul-03 13:01N 71°52' E 012°43'1 0.5 4.1
2015-Jul-03 12:01N 71°52' E 012°44'0 0.4 3.8
2015-Jul-03 11:01N 71°52' E 012°46'0 0.3 3.7
2015-Jul-03 10:01N 71°52' E 012°47'0 0.3 3.6
2015-Jul-03 09:01N 71°52' E 012°48'0 0.2 3.8
2015-Jul-03 08:01N 71°52' E 012°48'0 0.1 3.9
2015-Jul-03 07:01N 71°52' E 012°49'0 0.2 3.8
2015-Jul-03 06:01N 71°52' E 012°49'0 0.2 3.4
2015-Jul-03 05:01N 71°52' E 012°49'0 0.3 3.7
2015-Jul-03 04:01N 71°51' E 012°50'1 0.5 3.4
2015-Jul-03 03:01N 71°51' E 012°50'1 0.6 3.5
2015-Jul-03 02:01N 71°50' E 012°51'1 0.7 3.7
2015-Jul-03 01:01N 71°50' E 012°52'1 0.7 3.4
2015-Jul-03 00:01N 71°49' E 012°54'1 0.6 3.5
2015-Jul-02 23:01N 71°49' E 012°56'1 0.5 3.3
2015-Jul-02 22:01N 71°49' E 012°57'0 0.4 3.5
2015-Jul-02 21:01N 71°49' E 012°58'0 0.3 4.0
2015-Jul-02 20:01N 71°48' E 012°59'0 0.3 4.1
2015-Jul-02 19:01N 71°48' E 013°00'0 0.4 3.9
2015-Jul-02 18:01N 71°48' E 013°01'0 0.4 3.6
2015-Jul-02 17:01N 71°48' E 013°02'1 0.5 3.8
2015-Jul-02 16:01N 71°47' E 013°02'1 0.6 3.9
2015-Jul-02 15:01N 71°47' E 013°03'1 0.6 3.8
2015-Jul-02 14:01N 71°46' E 013°04'1 0.5 3.3
2015-Jul-02 13:01N 71°46' E 013°05'1 0.7 3.6
2015-Jul-02 12:01N 71°45' E 013°06'1 0.7 3.3
2015-Jul-02 11:01N 71°44' E 013°06'1 0.6 3.5
2015-Jul-02 10:01N 71°44' E 013°08'1 0.6 3.5
2015-Jul-02 09:01N 71°43' E 013°09'1 0.6 3.7
2015-Jul-02 08:02N 71°43' E 013°10'0 0.5 2.4
2015-Jul-02 07:01N 71°43' E 013°11'0 0.4 2.8
2015-Jul-02 06:01N 71°42' E 013°13'0 0.4 3.1
2015-Jul-02 05:01N 71°42' E 013°14'0 0.4 2.6
2015-Jul-02 04:01N 71°42' E 013°14'0 0.4 2.9
2015-Jul-02 03:01N 71°42' E 013°15'0 0.4 2.7
2015-Jul-02 02:01N 71°41' E 013°15'0 0.4 3.3
2015-Jul-02 01:01N 71°41' E 013°16'0 0.4 2.2
2015-Jul-02 00:01N 71°40' E 013°16'0 0.4 1.7
2015-Jul-01 23:01N 71°40' E 013°16'1 1.0 2.1
2015-Jul-01 22:01N 71°39' E 013°17'0 0.0 1.8
2015-Jul-01 21:01N 71°39' E 013°17'0 0.5 7.7
2015-Jul-01 20:01N 71°39' E 013°18'0 0.4 9.0
2015-Jul-01 19:01N 71°38' E 013°19'0 0.3 9.5
2015-Jul-01 18:01N 71°38' E 013°20'0 0.2 9.3
2015-Jul-01 17:01N 71°38' E 013°20'0 0.2 9.8
2015-Jul-01 16:01N 71°38' E 013°20'0 0.4 10.4
2015-Jul-01 15:01N 71°37' E 013°20'0 0.4 10.6
2015-Jul-01 14:01N 71°37' E 013°21'0 0.3 11.3
2015-Jul-01 13:01N 71°37' E 013°21'0 0.3 10.5
2015-Jul-01 12:01N 71°36' E 013°21'1 0.6 10.6
2015-Jul-01 11:01N 71°36' E 013°22'0 0.0 9.9
2015-Jul-01 10:01N 71°36' E 013°22'0 0.3 8.3
2015-Jul-01 09:01N 71°36' E 013°23'0 0.2 8.1
2015-Jul-01 08:01N 71°36' E 013°24'0 0.3 8.0
2015-Jul-01 07:01N 71°36' E 013°25'0 0.3 8.0
2015-Jul-01 06:01N 71°36' E 013°25'0 0.3 8.0
2015-Jul-01 05:01N 71°36' E 013°26'0 0.3 7.9
2015-Jul-01 04:01N 71°36' E 013°27'0 0.2 7.9
2015-Jul-01 03:01N 71°36' E 013°27'0 0.2 7.9
2015-Jul-01 02:01N 71°36' E 013°28'0 0.1 7.9
2015-Jul-01 01:01N 71°35' E 013°28'0 0.1 7.9
2015-Jul-01 00:01N 71°35' E 013°29'0 0.1 7.9
2015-Jun-30 23:01N 71°35' E 013°29'0 0.0 7.9
2015-Jun-30 22:01N 71°35' E 013°29'0 0.1 7.9
2015-Jun-30 21:01N 71°36' E 013°29'0 0.1 8.0
2015-Jun-30 20:01N 71°35' E 013°29'0 0.2 7.9
2015-Jun-30 18:01N 71°36' E 013°30'0 0.2 8.0
2015-Jun-30 17:01N 71°36' E 013°31'0 0.1 8.0
2015-Jun-30 16:01N 71°36' E 013°31'0 0.1 8.0
2015-Jun-30 15:01N 71°36' E 013°31'0 0.1 7.9
2015-Jun-30 14:01N 71°36' E 013°32'0 0.2 7.9
2015-Jun-30 13:01N 71°36' E 013°32'0 0.3 7.9
2015-Jun-30 12:01N 71°36' E 013°33'0 0.3 7.9
2015-Jun-30 11:01N 71°36' E 013°34'0 0.3 7.9
2015-Jun-30 10:01N 71°36' E 013°34'0 0.2 7.8
2015-Jun-30 09:01N 71°37' E 013°35'0 0.3 7.8
2015-Jun-30 08:01N 71°37' E 013°35'1 0.2 7.8
2015-Jun-30 05:01N 71°37' E 013°36'0 0.4 7.8
2015-Jun-30 04:01N 71°38' E 013°37'1 0.6 7.7
2015-Jun-30 03:01N 71°38' E 013°39'1 0.5 7.7
2015-Jun-30 02:01N 71°38' E 013°40'1 0.5 7.7
2015-Jun-30 01:01N 71°39' E 013°41'1 0.9 7.6
2015-Jun-30 00:01N 71°40' E 013°41'0 0.0 7.7
2015-Jun-29 23:01N 71°40' E 013°41'0 0.2 7.7
2015-Jun-29 22:01N 71°40' E 013°41'0 0.1 7.8
2015-Jun-29 21:01N 71°40' E 013°41'0 0.3 7.8
2015-Jun-29 20:01N 71°40' E 013°42'0 0.5 7.8
2015-Jun-29 19:01N 71°40' E 013°44'1 0.6 7.8
2015-Jun-29 18:01N 71°41' E 013°45'1 0.7 7.8
2015-Jun-29 17:01N 71°41' E 013°47'1 0.8 7.8
2015-Jun-29 16:01N 71°42' E 013°48'1 0.8 7.9
2015-Jun-29 15:01N 71°42' E 013°50'1 0.6 7.9
2015-Jun-29 14:01N 71°43' E 013°51'1 0.6 7.9
2015-Jun-29 13:01N 71°43' E 013°52'1 0.5 7.9
2015-Jun-29 12:01N 71°44' E 013°53'1 0.5 7.9
2015-Jun-29 11:01N 71°44' E 013°54'1 0.6 7.8
2015-Jun-29 10:01N 71°44' E 013°56'1 0.7 7.9
2015-Jun-29 09:01N 71°45' E 013°58'2 0.7 7.9
2015-Jun-29 06:01N 71°46' E 014°04'1 0.7 7.9
2015-Jun-29 05:01N 71°46' E 014°06'1 1.0 7.8
2015-Jun-29 04:01N 71°47' E 014°08'0 0.0 7.8
2015-Jun-29 03:01N 71°47' E 014°08'0 0.3 7.8
2015-Jun-29 02:01N 71°47' E 014°09'0 0.2 7.8
2015-Jun-29 01:01N 71°47' E 014°09'0 0.3 7.8
2015-Jun-29 00:01N 71°47' E 014°10'0 0.3 7.7
2015-Jun-28 23:01N 71°47' E 014°11'0 0.4 7.8
2015-Jun-28 22:01N 71°47' E 014°12'0 0.3 7.8
2015-Jun-28 21:01N 71°47' E 014°13'0 0.4 7.9
2015-Jun-28 20:01N 71°47' E 014°14'0 0.3 7.9
2015-Jun-28 19:01N 71°47' E 014°15'0 0.3 7.9
2015-Jun-28 18:01N 71°47' E 014°16'0 0.3 7.9
2015-Jun-28 17:01N 71°47' E 014°16'0 0.2 7.9
2015-Jun-28 16:01N 71°48' E 014°17'0 0.2 8.0
2015-Jun-28 15:01N 71°48' E 014°17'0 0.4 7.9
2015-Jun-28 14:01N 71°48' E 014°18'1 0.6 7.9
2015-Jun-28 13:01N 71°48' E 014°21'1 0.5 7.9
2015-Jun-28 12:01N 71°48' E 014°22'1 0.6 7.8
2015-Jun-28 11:01N 71°48' E 014°24'1 0.6 7.9
2015-Jun-28 10:01N 71°48' E 014°26'1 0.7 7.8
2015-Jun-28 09:01N 71°48' E 014°28'1 0.6 7.8
2015-Jun-28 08:01N 71°48' E 014°30'0 0.4 7.8
2015-Jun-28 07:01N 71°48' E 014°31'0 0.4 7.8
2015-Jun-28 06:01N 71°48' E 014°32'1 0.5 7.8
2015-Jun-28 05:01N 71°48' E 014°34'1 0.6 7.8
2015-Jun-28 04:01N 71°48' E 014°36'1 0.7 7.8
2015-Jun-28 03:01N 71°47' E 014°38'1 0.8 7.8
2015-Jun-28 02:01N 71°47' E 014°41'1 0.8 7.8
2015-Jun-28 01:01N 71°47' E 014°43'1 1.0 7.8
2015-Jun-28 00:01N 71°47' E 014°46'1 0.8 7.8
2015-Jun-27 23:01N 71°46' E 014°49'1 0.9 7.8
2015-Jun-27 22:01N 71°46' E 014°51'1 0.9 7.8
2015-Jun-27 21:01N 71°46' E 014°54'1 0.7 7.8
2015-Jun-27 20:01N 71°46' E 014°56'1 0.6 7.8
2015-Jun-27 19:01N 71°47' E 014°58'0 0.4 7.8
2015-Jun-27 18:01N 71°47' E 014°59'0 0.3 7.8
2015-Jun-27 17:01N 71°47' E 014°60'0 0.1 7.9
2015-Jun-27 16:01N 71°47' E 015°00'0 0.1 7.9
2015-Jun-27 15:01N 71°47' E 015°00'1 0.7 7.8
2015-Jun-27 14:01N 71°46' E 015°02'0 0.0 7.8
2015-Jun-27 13:01N 71°46' E 015°02'1 0.5 7.8
2015-Jun-27 12:01N 71°46' E 015°04'1 0.6 7.7
2015-Jun-27 11:01N 71°46' E 015°05'1 0.5 7.7
2015-Jun-27 10:01N 71°46' E 015°07'1 0.6 7.7
2015-Jun-27 09:01N 71°46' E 015°09'1 0.5 7.7
2015-Jun-27 08:01N 71°46' E 015°10'1 0.5 7.6
2015-Jun-27 06:01N 71°47' E 015°12'0 0.2 7.5
2015-Jun-27 05:01N 71°47' E 015°12'0 0.2 7.4
2015-Jun-27 03:01N 71°47' E 015°14'0 0.4 7.4
2015-Jun-27 02:01N 71°48' E 015°15'0 0.3 7.4
2015-Jun-27 01:01N 71°48' E 015°15'0 0.2 7.4
2015-Jun-27 00:01N 71°48' E 015°15'0 0.1 7.4
2015-Jun-26 23:01N 71°48' E 015°16'0 0.1 7.5
2015-Jun-26 22:01N 71°48' E 015°16'0 0.2 7.5
2015-Jun-26 21:01N 71°48' E 015°16'0 0.4 7.5
2015-Jun-26 20:02N 71°48' E 015°17'0 0.4 7.6
2015-Jun-26 19:01N 71°47' E 015°18'0 0.3 7.6
2015-Jun-26 18:01N 71°47' E 015°19'0 0.3 7.7
2015-Jun-26 17:01N 71°47' E 015°20'1 0.5 7.6
2015-Jun-26 16:01N 71°48' E 015°22'1 0.5 7.7
2015-Jun-26 15:01N 71°48' E 015°23'1 0.7 7.5
2015-Jun-26 14:01N 71°48' E 015°25'1 0.7 7.5
2015-Jun-26 13:01N 71°49' E 015°26'1 0.7 7.5
2015-Jun-26 12:01N 71°50' E 015°27'1 0.6 7.4
2015-Jun-26 11:01N 71°50' E 015°27'0 0.4 7.4
2015-Jun-26 10:01N 71°51' E 015°28'0 0.3 7.4
2015-Jun-26 09:01N 71°51' E 015°28'0 0.4 7.4
2015-Jun-26 08:01N 71°51' E 015°29'1 0.7 7.3
2015-Jun-26 07:01N 71°52' E 015°31'1 1.0 7.3
2015-Jun-26 06:01N 71°52' E 015°32'1 0.8 7.3
2015-Jun-26 05:01N 71°53' E 015°32'1 0.8 7.3
2015-Jun-26 04:01N 71°54' E 015°32'1 0.8 7.3
2015-Jun-26 03:01N 71°55' E 015°31'1 0.9 7.3
2015-Jun-26 02:01N 71°56' E 015°30'0 0.4 7.3
2015-Jun-26 01:01N 71°56' E 015°29'0 0.4 7.3
2015-Jun-26 00:01N 71°56' E 015°29'0 0.4 7.3
2015-Jun-25 23:01N 71°57' E 015°28'0 0.4 7.3
2015-Jun-25 22:01N 71°57' E 015°27'0 0.3 7.3
2015-Jun-25 21:01N 71°57' E 015°26'0 0.3 7.4
2015-Jun-25 20:01N 71°57' E 015°26'0 0.3 7.4
2015-Jun-25 19:01N 71°58' E 015°26'1 0.6 7.4
2015-Jun-25 18:01N 71°58' E 015°25'1 0.6 7.4
2015-Jun-25 17:01N 71°59' E 015°24'0 0.5 7.4
2015-Jun-25 16:01N 71°59' E 015°23'1 0.7 7.4
2015-Jun-25 15:01N 71°60' E 015°22'1 0.7 7.4
2015-Jun-25 14:01N 72°00' E 015°20'1 0.6 7.4
2015-Jun-25 13:01N 72°01' E 015°19'1 0.5 7.4
2015-Jun-25 12:01N 72°01' E 015°17'1 0.7 7.4
2015-Jun-25 11:01N 72°01' E 015°16'1 0.6 7.4
2015-Jun-25 10:01N 72°02' E 015°14'1 0.6 7.3
2015-Jun-25 09:01N 72°02' E 015°12'1 0.6 7.3
2015-Jun-25 08:01N 72°02' E 015°10'1 0.5 7.3
2015-Jun-25 07:01N 72°02' E 015°09'0 0.4 7.4
2015-Jun-25 06:01N 72°02' E 015°08'0 0.3 7.4
2015-Jun-25 05:01N 72°02' E 015°06'0 0.3 7.4
2015-Jun-25 04:01N 72°02' E 015°06'1 0.5 7.4
2015-Jun-25 03:01N 72°03' E 015°05'1 0.6 7.4
2015-Jun-25 02:01N 72°03' E 015°03'1 0.7 7.4
2015-Jun-25 01:01N 72°03' E 015°01'1 0.7 7.4
2015-Jun-25 00:01N 72°04' E 014°59'1 0.8 7.3
2015-Jun-24 23:01N 72°04' E 014°57'1 0.8 7.3
2015-Jun-24 22:01N 72°04' E 014°54'1 0.8 7.3
2015-Jun-24 21:01N 72°04' E 014°52'1 0.7 7.4
2015-Jun-24 20:01N 72°04' E 014°49'1 0.7 7.4
2015-Jun-24 19:01N 72°04' E 014°47'1 0.6 7.4
2015-Jun-24 18:01N 72°04' E 014°45'0 0.4 7.5
2015-Jun-24 17:01N 72°04' E 014°44'0 0.3 7.5
2015-Jun-24 16:01N 72°04' E 014°43'1 0.4 7.4
2015-Jun-24 14:01N 72°05' E 014°42'1 0.6 7.2
2015-Jun-24 13:01N 72°05' E 014°41'1 0.8 7.2
2015-Jun-24 12:01N 72°06' E 014°39'1 0.8 7.2
2015-Jun-24 11:01N 72°07' E 014°37'1 0.7 7.2
2015-Jun-24 10:01N 72°07' E 014°35'1 0.7 7.2
2015-Jun-24 09:01N 72°07' E 014°33'1 0.6 7.2
2015-Jun-24 08:01N 72°07' E 014°31'1 0.6 7.2
2015-Jun-24 07:01N 72°08' E 014°29'0 0.5 7.2
2015-Jun-24 06:01N 72°08' E 014°28'   7.2
Track history (hours):
 
Tides and Currents Weather Stations Pressure Air Temp Water Temp Dewpoint Dewpoint Depression Visibility Wind Speed Wind Dir Waves Ship Positions

Drifting buoy 44845

Last reported at 2015-Jul-04 06:01 UTC. Time now 2015-Jul-04 06:59 UTC.
Position N 71°54' E 012°07'.

Water temperature 3.9 ° C

Date/timePositionNaut miles runAvg speedWind from/ knotsBaromVisibWave heightAir tempDewpointWater temp
2015-Jul-04 06:01N 71°54' E 012°07'1 0.8 3.9
2015-Jul-04 05:01N 71°53' E 012°10'1 0.9 3.7
2015-Jul-04 04:01N 71°53' E 012°12'1 0.9 3.8
2015-Jul-04 03:01N 71°53' E 012°15'1 0.9 3.5
2015-Jul-04 02:01N 71°53' E 012°18'1 0.8 3.9
2015-Jul-04 01:01N 71°53' E 012°20'1 0.7 3.6
2015-Jul-04 00:01N 71°53' E 012°23'1 0.6 4.0
2015-Jul-03 23:01N 71°53' E 012°25'1 0.5 4.0
2015-Jul-03 22:01N 71°53' E 012°26'0 0.4 4.3
2015-Jul-03 21:01N 71°53' E 012°28'1 0.5 4.2
2015-Jul-03 20:01N 71°53' E 012°29'1 0.6 4.0
2015-Jul-03 19:01N 71°53' E 012°31'1 0.6 4.2
2015-Jul-03 18:01N 71°53' E 012°33'1 0.6 3.9
2015-Jul-03 17:01N 71°52' E 012°35'1 0.7 4.0
2015-Jul-03 16:01N 71°52' E 012°37'1 0.6 4.2
2015-Jul-03 15:01N 71°52' E 012°39'1 0.6 4.1
2015-Jul-03 14:01N 71°52' E 012°41'1 0.6 3.9
2015-Jul-03 13:01N 71°52' E 012°43'1 0.5 4.1
2015-Jul-03 12:01N 71°52' E 012°44'0 0.4 3.8
2015-Jul-03 11:01N 71°52' E 012°46'0 0.3 3.7
2015-Jul-03 10:01N 71°52' E 012°47'0 0.3 3.6
2015-Jul-03 09:01N 71°52' E 012°48'0 0.2 3.8
2015-Jul-03 08:01N 71°52' E 012°48'0 0.1 3.9
2015-Jul-03 07:01N 71°52' E 012°49'0 0.2 3.8
2015-Jul-03 06:01N 71°52' E 012°49'0 0.2 3.4
2015-Jul-03 05:01N 71°52' E 012°49'0 0.3 3.7
2015-Jul-03 04:01N 71°51' E 012°50'1 0.5 3.4
2015-Jul-03 03:01N 71°51' E 012°50'1 0.6 3.5
2015-Jul-03 02:01N 71°50' E 012°51'1 0.7 3.7
2015-Jul-03 01:01N 71°50' E 012°52'1 0.7 3.4
2015-Jul-03 00:01N 71°49' E 012°54'1 0.6 3.5
2015-Jul-02 23:01N 71°49' E 012°56'1 0.5 3.3
2015-Jul-02 22:01N 71°49' E 012°57'0 0.4 3.5
2015-Jul-02 21:01N 71°49' E 012°58'0 0.3 4.0
2015-Jul-02 20:01N 71°48' E 012°59'0 0.3 4.1
2015-Jul-02 19:01N 71°48' E 013°00'0 0.4 3.9
2015-Jul-02 18:01N 71°48' E 013°01'0 0.4 3.6
2015-Jul-02 17:01N 71°48' E 013°02'1 0.5 3.8
2015-Jul-02 16:01N 71°47' E 013°02'1 0.6 3.9
2015-Jul-02 15:01N 71°47' E 013°03'1 0.6 3.8
2015-Jul-02 14:01N 71°46' E 013°04'1 0.5 3.3
2015-Jul-02 13:01N 71°46' E 013°05'1 0.7 3.6
2015-Jul-02 12:01N 71°45' E 013°06'1 0.7 3.3
2015-Jul-02 11:01N 71°44' E 013°06'1 0.6 3.5
2015-Jul-02 10:01N 71°44' E 013°08'1 0.6 3.5
2015-Jul-02 09:01N 71°43' E 013°09'1 0.6 3.7
2015-Jul-02 08:02N 71°43' E 013°10'0 0.5 2.4
2015-Jul-02 07:01N 71°43' E 013°11'0 0.4 2.8
2015-Jul-02 06:01N 71°42' E 013°13'0 0.4 3.1
2015-Jul-02 05:01N 71°42' E 013°14'0 0.4 2.6
2015-Jul-02 04:01N 71°42' E 013°14'0 0.4 2.9
2015-Jul-02 03:01N 71°42' E 013°15'0 0.4 2.7
2015-Jul-02 02:01N 71°41' E 013°15'0 0.4 3.3
2015-Jul-02 01:01N 71°41' E 013°16'0 0.4 2.2
2015-Jul-02 00:01N 71°40' E 013°16'0 0.4 1.7
2015-Jul-01 23:01N 71°40' E 013°16'1 1.0 2.1
2015-Jul-01 22:01N 71°39' E 013°17'0 0.0 1.8
2015-Jul-01 21:01N 71°39' E 013°17'0 0.5 7.7
2015-Jul-01 20:01N 71°39' E 013°18'0 0.4 9.0
2015-Jul-01 19:01N 71°38' E 013°19'0 0.3 9.5
2015-Jul-01 18:01N 71°38' E 013°20'0 0.2 9.3
2015-Jul-01 17:01N 71°38' E 013°20'0 0.2 9.8
2015-Jul-01 16:01N 71°38' E 013°20'0 0.4 10.4
2015-Jul-01 15:01N 71°37' E 013°20'0 0.4 10.6
2015-Jul-01 14:01N 71°37' E 013°21'0 0.3 11.3
2015-Jul-01 13:01N 71°37' E 013°21'0 0.3 10.5
2015-Jul-01 12:01N 71°36' E 013°21'1 0.6 10.6
2015-Jul-01 11:01N 71°36' E 013°22'0 0.0 9.9
2015-Jul-01 10:01N 71°36' E 013°22'0 0.3 8.3
2015-Jul-01 09:01N 71°36' E 013°23'0 0.2 8.1
2015-Jul-01 08:01N 71°36' E 013°24'0 0.3 8.0
2015-Jul-01 07:01N 71°36' E 013°25'0 0.3 8.0
2015-Jul-01 06:01N 71°36' E 013°25'0 0.3 8.0
2015-Jul-01 05:01N 71°36' E 013°26'0 0.3 7.9
2015-Jul-01 04:01N 71°36' E 013°27'0 0.2 7.9
2015-Jul-01 03:01N 71°36' E 013°27'0 0.2 7.9
2015-Jul-01 02:01N 71°36' E 013°28'0 0.1 7.9
2015-Jul-01 01:01N 71°35' E 013°28'0 0.1 7.9
2015-Jul-01 00:01N 71°35' E 013°29'0 0.1 7.9
2015-Jun-30 23:01N 71°35' E 013°29'0 0.0 7.9
2015-Jun-30 22:01N 71°35' E 013°29'0 0.1 7.9
2015-Jun-30 21:01N 71°36' E 013°29'0 0.1 8.0
2015-Jun-30 20:01N 71°35' E 013°29'0 0.2 7.9
2015-Jun-30 18:01N 71°36' E 013°30'0 0.2 8.0
2015-Jun-30 17:01N 71°36' E 013°31'0 0.1 8.0
2015-Jun-30 16:01N 71°36' E 013°31'0 0.1 8.0
2015-Jun-30 15:01N 71°36' E 013°31'0 0.1 7.9
2015-Jun-30 14:01N 71°36' E 013°32'0 0.2 7.9
2015-Jun-30 13:01N 71°36' E 013°32'0 0.3 7.9
2015-Jun-30 12:01N 71°36' E 013°33'0 0.3 7.9
2015-Jun-30 11:01N 71°36' E 013°34'0 0.3 7.9
2015-Jun-30 10:01N 71°36' E 013°34'0 0.2 7.8
2015-Jun-30 09:01N 71°37' E 013°35'0 0.3 7.8
2015-Jun-30 08:01N 71°37' E 013°35'1 0.2 7.8
2015-Jun-30 05:01N 71°37' E 013°36'0 0.4 7.8
2015-Jun-30 04:01N 71°38' E 013°37'1 0.6 7.7
2015-Jun-30 03:01N 71°38' E 013°39'1 0.5 7.7
2015-Jun-30 02:01N 71°38' E 013°40'1 0.5 7.7
2015-Jun-30 01:01N 71°39' E 013°41'1 0.9 7.6
2015-Jun-30 00:01N 71°40' E 013°41'0 0.0 7.7
2015-Jun-29 23:01N 71°40' E 013°41'0 0.2 7.7
2015-Jun-29 22:01N 71°40' E 013°41'0 0.1 7.8
2015-Jun-29 21:01N 71°40' E 013°41'0 0.3 7.8
2015-Jun-29 20:01N 71°40' E 013°42'0 0.5 7.8
2015-Jun-29 19:01N 71°40' E 013°44'1 0.6 7.8
2015-Jun-29 18:01N 71°41' E 013°45'1 0.7 7.8
2015-Jun-29 17:01N 71°41' E 013°47'1 0.8 7.8
2015-Jun-29 16:01N 71°42' E 013°48'1 0.8 7.9
2015-Jun-29 15:01N 71°42' E 013°50'1 0.6 7.9
2015-Jun-29 14:01N 71°43' E 013°51'1 0.6 7.9
2015-Jun-29 13:01N 71°43' E 013°52'1 0.5 7.9
2015-Jun-29 12:01N 71°44' E 013°53'1 0.5 7.9
2015-Jun-29 11:01N 71°44' E 013°54'1 0.6 7.8
2015-Jun-29 10:01N 71°44' E 013°56'1 0.7 7.9
2015-Jun-29 09:01N 71°45' E 013°58'2 0.7 7.9
2015-Jun-29 06:01N 71°46' E 014°04'1 0.7 7.9
2015-Jun-29 05:01N 71°46' E 014°06'1 1.0 7.8
2015-Jun-29 04:01N 71°47' E 014°08'0 0.0 7.8
2015-Jun-29 03:01N 71°47' E 014°08'0 0.3 7.8
2015-Jun-29 02:01N 71°47' E 014°09'0 0.2 7.8
2015-Jun-29 01:01N 71°47' E 014°09'0 0.3 7.8
2015-Jun-29 00:01N 71°47' E 014°10'0 0.3 7.7
2015-Jun-28 23:01N 71°47' E 014°11'0 0.4 7.8
2015-Jun-28 22:01N 71°47' E 014°12'0 0.3 7.8
2015-Jun-28 21:01N 71°47' E 014°13'0 0.4 7.9
2015-Jun-28 20:01N 71°47' E 014°14'0 0.3 7.9
2015-Jun-28 19:01N 71°47' E 014°15'0 0.3 7.9
2015-Jun-28 18:01N 71°47' E 014°16'0 0.3 7.9
2015-Jun-28 17:01N 71°47' E 014°16'0 0.2 7.9
2015-Jun-28 16:01N 71°48' E 014°17'0 0.2 8.0
2015-Jun-28 15:01N 71°48' E 014°17'0 0.4 7.9
2015-Jun-28 14:01N 71°48' E 014°18'1 0.6 7.9
2015-Jun-28 13:01N 71°48' E 014°21'1 0.5 7.9
2015-Jun-28 12:01N 71°48' E 014°22'1 0.6 7.8
2015-Jun-28 11:01N 71°48' E 014°24'1 0.6 7.9
2015-Jun-28 10:01N 71°48' E 014°26'1 0.7 7.8
2015-Jun-28 09:01N 71°48' E 014°28'1 0.6 7.8
2015-Jun-28 08:01N 71°48' E 014°30'0 0.4 7.8
2015-Jun-28 07:01N 71°48' E 014°31'0 0.4 7.8
2015-Jun-28 06:01N 71°48' E 014°32'1 0.5 7.8
2015-Jun-28 05:01N 71°48' E 014°34'1 0.6 7.8
2015-Jun-28 04:01N 71°48' E 014°36'1 0.7 7.8
2015-Jun-28 03:01N 71°47' E 014°38'1 0.8 7.8
2015-Jun-28 02:01N 71°47' E 014°41'1 0.8 7.8
2015-Jun-28 01:01N 71°47' E 014°43'1 1.0 7.8
2015-Jun-28 00:01N 71°47' E 014°46'1 0.8 7.8
2015-Jun-27 23:01N 71°46' E 014°49'1 0.9 7.8
2015-Jun-27 22:01N 71°46' E 014°51'1 0.9 7.8
2015-Jun-27 21:01N 71°46' E 014°54'1 0.7 7.8
2015-Jun-27 20:01N 71°46' E 014°56'1 0.6 7.8
2015-Jun-27 19:01N 71°47' E 014°58'0 0.4 7.8
2015-Jun-27 18:01N 71°47' E 014°59'0 0.3 7.8
2015-Jun-27 17:01N 71°47' E 014°60'0 0.1 7.9
2015-Jun-27 16:01N 71°47' E 015°00'0 0.1 7.9
2015-Jun-27 15:01N 71°47' E 015°00'1 0.7 7.8
2015-Jun-27 14:01N 71°46' E 015°02'0 0.0 7.8
2015-Jun-27 13:01N 71°46' E 015°02'1 0.5 7.8
2015-Jun-27 12:01N 71°46' E 015°04'1 0.6 7.7
2015-Jun-27 11:01N 71°46' E 015°05'1 0.5 7.7
2015-Jun-27 10:01N 71°46' E 015°07'1 0.6 7.7
2015-Jun-27 09:01N 71°46' E 015°09'1 0.5 7.7
2015-Jun-27 08:01N 71°46' E 015°10'1 0.5 7.6
2015-Jun-27 06:01N 71°47' E 015°12'0 0.2 7.5
2015-Jun-27 05:01N 71°47' E 015°12'0 0.2 7.4
2015-Jun-27 03:01N 71°47' E 015°14'0 0.4 7.4
2015-Jun-27 02:01N 71°48' E 015°15'0 0.3 7.4
2015-Jun-27 01:01N 71°48' E 015°15'0 0.2 7.4
2015-Jun-27 00:01N 71°48' E 015°15'0 0.1 7.4
2015-Jun-26 23:01N 71°48' E 015°16'0 0.1 7.5
2015-Jun-26 22:01N 71°48' E 015°16'0 0.2 7.5
2015-Jun-26 21:01N 71°48' E 015°16'0 0.4 7.5
2015-Jun-26 20:02N 71°48' E 015°17'0 0.4 7.6
2015-Jun-26 19:01N 71°47' E 015°18'0 0.3 7.6
2015-Jun-26 18:01N 71°47' E 015°19'0 0.3 7.7
2015-Jun-26 17:01N 71°47' E 015°20'1 0.5 7.6
2015-Jun-26 16:01N 71°48' E 015°22'1 0.5 7.7
2015-Jun-26 15:01N 71°48' E 015°23'1 0.7 7.5
2015-Jun-26 14:01N 71°48' E 015°25'1 0.7 7.5
2015-Jun-26 13:01N 71°49' E 015°26'1 0.7 7.5
2015-Jun-26 12:01N 71°50' E 015°27'1 0.6 7.4
2015-Jun-26 11:01N 71°50' E 015°27'0 0.4 7.4
2015-Jun-26 10:01N 71°51' E 015°28'0 0.3 7.4
2015-Jun-26 09:01N 71°51' E 015°28'0 0.4 7.4
2015-Jun-26 08:01N 71°51' E 015°29'1 0.7 7.3
2015-Jun-26 07:01N 71°52' E 015°31'1 1.0 7.3
2015-Jun-26 06:01N 71°52' E 015°32'1 0.8 7.3
2015-Jun-26 05:01N 71°53' E 015°32'1 0.8 7.3
2015-Jun-26 04:01N 71°54' E 015°32'1 0.8 7.3
2015-Jun-26 03:01N 71°55' E 015°31'1 0.9 7.3
2015-Jun-26 02:01N 71°56' E 015°30'0 0.4 7.3
2015-Jun-26 01:01N 71°56' E 015°29'0 0.4 7.3
2015-Jun-26 00:01N 71°56' E 015°29'0 0.4 7.3
2015-Jun-25 23:01N 71°57' E 015°28'0 0.4 7.3
2015-Jun-25 22:01N 71°57' E 015°27'0 0.3 7.3
2015-Jun-25 21:01N 71°57' E 015°26'0 0.3 7.4
2015-Jun-25 20:01N 71°57' E 015°26'0 0.3 7.4
2015-Jun-25 19:01N 71°58' E 015°26'1 0.6 7.4
2015-Jun-25 18:01N 71°58' E 015°25'1 0.6 7.4
2015-Jun-25 17:01N 71°59' E 015°24'0 0.5 7.4
2015-Jun-25 16:01N 71°59' E 015°23'1 0.7 7.4
2015-Jun-25 15:01N 71°60' E 015°22'1 0.7 7.4
2015-Jun-25 14:01N 72°00' E 015°20'1 0.6 7.4
2015-Jun-25 13:01N 72°01' E 015°19'1 0.5 7.4
2015-Jun-25 12:01N 72°01' E 015°17'1 0.7 7.4
2015-Jun-25 11:01N 72°01' E 015°16'1 0.6 7.4
2015-Jun-25 10:01N 72°02' E 015°14'1 0.6 7.3
2015-Jun-25 09:01N 72°02' E 015°12'1 0.6 7.3
2015-Jun-25 08:01N 72°02' E 015°10'1 0.5 7.3
2015-Jun-25 07:01N 72°02' E 015°09'0 0.4 7.4
2015-Jun-25 06:01N 72°02' E 015°08'0 0.3 7.4
2015-Jun-25 05:01N 72°02' E 015°06'0 0.3 7.4
2015-Jun-25 04:01N 72°02' E 015°06'1 0.5 7.4
2015-Jun-25 03:01N 72°03' E 015°05'1 0.6 7.4
2015-Jun-25 02:01N 72°03' E 015°03'1 0.7 7.4
2015-Jun-25 01:01N 72°03' E 015°01'1 0.7 7.4
2015-Jun-25 00:01N 72°04' E 014°59'1 0.8 7.3
2015-Jun-24 23:01N 72°04' E 014°57'1 0.8 7.3
2015-Jun-24 22:01N 72°04' E 014°54'1 0.8 7.3
2015-Jun-24 21:01N 72°04' E 014°52'1 0.7 7.4
2015-Jun-24 20:01N 72°04' E 014°49'1 0.7 7.4
2015-Jun-24 19:01N 72°04' E 014°47'1 0.6 7.4
2015-Jun-24 18:01N 72°04' E 014°45'0 0.4 7.5
2015-Jun-24 17:01N 72°04' E 014°44'0 0.3 7.5
2015-Jun-24 16:01N 72°04' E 014°43'1 0.4 7.4
2015-Jun-24 14:01N 72°05' E 014°42'1 0.6 7.2
2015-Jun-24 13:01N 72°05' E 014°41'1 0.8 7.2
2015-Jun-24 12:01N 72°06' E 014°39'1 0.8 7.2
2015-Jun-24 11:01N 72°07' E 014°37'1 0.7 7.2
2015-Jun-24 10:01N 72°07' E 014°35'1 0.7 7.2
2015-Jun-24 09:01N 72°07' E 014°33'1 0.6 7.2
2015-Jun-24 08:01N 72°07' E 014°31'1 0.6 7.2
2015-Jun-24 07:01N 72°08' E 014°29'0 0.5 7.2
2015-Jun-24 06:01N 72°08' E 014°28'   7.2

Dump ship's entire track history